SAS936 KSFO-EKCH
Flight info
| Callsign | SAS936 |
|---|---|
| Flight time | N/A |
| Altitude | 35000 |
| Route | TRUKN2 ORRCA Q120 BETBE DCT GASSI J7 REO J537 MLP J540 YQL Q896 MEETO Q959 YVC J540 YZS DCT 67N071W/M078F350 69N056W 69N040W 68N024W 66N010W DCT ISVIG/N0443F350 DCT BETRO DCT TINIG DCT NIROD DCT ERNOV |
| Aircraft | A343/H-SDE3FGHIJ3J4J5M1P2RWXYZ/LB1D1 |
Departure
| Time | 2026-05-04 09:01 |
|---|---|
| Airport | San Francisco International Airport (KSFO) |
Arrival
| Time | N/A |
|---|---|
| Airport | Copenhagen Kastrup Airport (EKCH) |
| Time | Latitude | Longitude | Altitude | Speed | Heading |
|---|---|---|---|---|---|
| 2026-05-04 08:42 | 37.61350 | -122.38812 | 27 ft | 0 kts | 297° |
| 2026-05-04 08:50 | 37.61308 | -122.38711 | 30 ft | 0 kts | 297° |
| 2026-05-04 08:53 | 37.61308 | -122.38712 | 30 ft | 0 kts | 297° |
| 2026-05-04 08:54 | 37.61024 | -122.38871 | 27 ft | 6 kts | 134° |
| 2026-05-04 08:55 | 37.60994 | -122.38824 | 29 ft | 9 kts | 124° |
| 2026-05-04 08:55 | 37.60961 | -122.38746 | 27 ft | 12 kts | 117° |
| 2026-05-04 08:55 | 37.60923 | -122.38656 | 28 ft | 11 kts | 118° |
| 2026-05-04 08:55 | 37.60887 | -122.38569 | 29 ft | 11 kts | 117° |
| 2026-05-04 08:57 | 37.60649 | -122.38102 | 29 ft | 5 kts | 105° |
| 2026-05-04 09:01 | 37.70721 | -122.23546 | 4086 ft | 274 kts | 58° |
| 2026-05-04 09:01 | 37.71842 | -122.21594 | 4824 ft | 277 kts | 48° |
| 2026-05-04 09:01 | 37.73313 | -122.20023 | 5542 ft | 279 kts | 38° |
| 2026-05-04 09:01 | 37.74901 | -122.18585 | 6236 ft | 282 kts | 38° |
| 2026-05-04 09:02 | 37.76512 | -122.17146 | 6875 ft | 285 kts | 38° |
| 2026-05-04 09:02 | 37.78133 | -122.15694 | 7569 ft | 286 kts | 38° |
| 2026-05-04 09:02 | 37.79753 | -122.14237 | 8259 ft | 286 kts | 38° |
| 2026-05-04 09:02 | 37.81375 | -122.12774 | 8926 ft | 287 kts | 38° |
| 2026-05-04 09:03 | 37.83002 | -122.11303 | 9586 ft | 288 kts | 37° |
| 2026-05-04 09:03 | 37.84634 | -122.09827 | 10192 ft | 291 kts | 37° |
| 2026-05-04 09:03 | 37.86315 | -122.08303 | 10460 ft | 304 kts | 37° |
| 2026-05-04 09:03 | 37.88077 | -122.06705 | 10736 ft | 319 kts | 38° |
| 2026-05-04 09:04 | 37.89921 | -122.05042 | 10952 ft | 333 kts | 38° |
| 2026-05-04 09:04 | 37.91818 | -122.03317 | 11155 ft | 346 kts | 37° |
| 2026-05-04 09:04 | 37.93809 | -122.01505 | 11424 ft | 357 kts | 37° |
| 2026-05-04 09:04 | 37.95843 | -121.99655 | 11877 ft | 362 kts | 37° |
| 2026-05-04 09:05 | 37.97898 | -121.97787 | 12454 ft | 364 kts | 38° |
| 2026-05-04 09:05 | 37.99960 | -121.95911 | 13018 ft | 366 kts | 38° |
| 2026-05-04 09:05 | 38.02038 | -121.94019 | 13551 ft | 369 kts | 38° |
| 2026-05-04 09:05 | 38.04157 | -121.92088 | 14071 ft | 372 kts | 38° |
| 2026-05-04 09:06 | 38.06267 | -121.90163 | 14541 ft | 375 kts | 38° |
| 2026-05-04 09:07 | 38.21446 | -121.76278 | 17781 ft | 396 kts | 38° |
| 2026-05-04 09:08 | 38.23686 | -121.74222 | 18253 ft | 398 kts | 38° |
| 2026-05-04 09:08 | 38.25939 | -121.72153 | 18676 ft | 401 kts | 38° |
| 2026-05-04 09:08 | 38.28200 | -121.70076 | 19153 ft | 401 kts | 39° |
| 2026-05-04 09:08 | 38.30464 | -121.67994 | 19647 ft | 401 kts | 39° |
| 2026-05-04 09:09 | 38.32725 | -121.65914 | 20109 ft | 402 kts | 39° |
| 2026-05-04 09:09 | 38.34992 | -121.63825 | 20578 ft | 402 kts | 39° |
| 2026-05-04 09:09 | 38.37262 | -121.61733 | 21027 ft | 403 kts | 39° |
| 2026-05-04 09:09 | 38.39535 | -121.59636 | 21482 ft | 404 kts | 39° |
| 2026-05-04 09:10 | 38.41818 | -121.57526 | 21919 ft | 405 kts | 40° |
| 2026-05-04 09:10 | 38.43976 | -121.55300 | 22329 ft | 403 kts | 46° |
| 2026-05-04 09:10 | 38.45896 | -121.52709 | 22758 ft | 402 kts | 52° |
| 2026-05-04 09:10 | 38.47683 | -121.49965 | 23110 ft | 403 kts | 54° |
| 2026-05-04 09:11 | 38.49417 | -121.47144 | 23479 ft | 405 kts | 55° |
| 2026-05-04 09:11 | 38.51132 | -121.44282 | 23819 ft | 406 kts | 55° |
| 2026-05-04 09:11 | 38.52847 | -121.41409 | 24100 ft | 408 kts | 55° |
| 2026-05-04 09:11 | 38.54579 | -121.38516 | 24324 ft | 412 kts | 55° |
| 2026-05-04 09:12 | 38.56336 | -121.35601 | 24520 ft | 416 kts | 54° |
| 2026-05-04 09:12 | 38.58111 | -121.32670 | 24813 ft | 417 kts | 54° |
| 2026-05-04 09:14 | 38.70744 | -121.11859 | 26721 ft | 429 kts | 54° |
| 2026-05-04 09:14 | 38.72573 | -121.08834 | 26962 ft | 431 kts | 54° |
| 2026-05-04 09:14 | 38.74410 | -121.05793 | 27209 ft | 432 kts | 54° |
| 2026-05-04 09:14 | 38.76250 | -121.02744 | 27463 ft | 434 kts | 54° |
| 2026-05-04 09:15 | 38.78100 | -120.99675 | 27722 ft | 435 kts | 54° |
| 2026-05-04 09:15 | 38.79953 | -120.96597 | 27974 ft | 437 kts | 54° |
| 2026-05-04 09:15 | 38.81813 | -120.93507 | 28226 ft | 439 kts | 54° |
| 2026-05-04 09:15 | 38.83652 | -120.90450 | 28467 ft | 440 kts | 54° |
| 2026-05-04 09:17 | 38.98698 | -120.65316 | 30482 ft | 443 kts | 54° |
| 2026-05-04 09:18 | 39.02458 | -120.59001 | 30743 ft | 446 kts | 54° |
| 2026-05-04 09:18 | 39.04349 | -120.55822 | 30882 ft | 448 kts | 54° |
| 2026-05-04 09:18 | 39.06243 | -120.52635 | 31037 ft | 449 kts | 54° |
| 2026-05-04 09:19 | 39.08144 | -120.49431 | 31172 ft | 451 kts | 54° |
| 2026-05-04 09:19 | 39.10049 | -120.46218 | 31308 ft | 452 kts | 54° |
| 2026-05-04 09:19 | 39.11957 | -120.42998 | 31454 ft | 453 kts | 54° |
| 2026-05-04 09:19 | 39.13871 | -120.39763 | 31570 ft | 454 kts | 54° |
| 2026-05-04 09:20 | 39.17722 | -120.33244 | 31799 ft | 459 kts | 54° |
| 2026-05-04 09:20 | 39.19657 | -120.29964 | 31965 ft | 460 kts | 54° |
| 2026-05-04 09:20 | 39.21593 | -120.26681 | 32135 ft | 461 kts | 54° |
| 2026-05-04 09:21 | 39.23531 | -120.23388 | 32278 ft | 462 kts | 54° |
| 2026-05-04 09:21 | 39.25477 | -120.20078 | 32437 ft | 463 kts | 54° |
| 2026-05-04 09:21 | 39.27423 | -120.16766 | 32566 ft | 464 kts | 54° |
| 2026-05-04 09:21 | 39.29348 | -120.13487 | 32700 ft | 465 kts | 54° |
| 2026-05-04 09:22 | 39.31299 | -120.10159 | 32815 ft | 466 kts | 54° |
| 2026-05-04 09:22 | 39.33258 | -120.06814 | 32990 ft | 465 kts | 54° |
| 2026-05-04 09:22 | 39.35192 | -120.03510 | 33476 ft | 458 kts | 54° |
| 2026-05-04 09:22 | 39.37113 | -120.00223 | 33613 ft | 459 kts | 54° |
| 2026-05-04 09:23 | 39.40968 | -119.93617 | 33745 ft | 461 kts | 54° |
| 2026-05-04 09:23 | 39.42898 | -119.90305 | 33905 ft | 461 kts | 54° |
| 2026-05-04 09:23 | 39.44831 | -119.86983 | 34029 ft | 462 kts | 54° |
| 2026-05-04 09:25 | 39.58427 | -119.63526 | 34611 ft | 468 kts | 54° |
| 2026-05-04 09:25 | 39.60378 | -119.60145 | 34686 ft | 468 kts | 54° |
| 2026-05-04 09:26 | 39.64282 | -119.53369 | 34825 ft | 470 kts | 54° |
| 2026-05-04 09:26 | 39.68215 | -119.46530 | 34795 ft | 475 kts | 54° |
| 2026-05-04 09:27 | 39.72179 | -119.39616 | 34840 ft | 479 kts | 54° |
| 2026-05-04 09:27 | 39.76138 | -119.32703 | 34843 ft | 474 kts | 54° |
| 2026-05-04 09:28 | 39.80034 | -119.25885 | 34846 ft | 473 kts | 54° |
| 2026-05-04 09:28 | 39.83962 | -119.19031 | 34838 ft | 473 kts | 52° |
| 2026-05-04 09:29 | 39.88768 | -119.13211 | 34840 ft | 475 kts | 33° |
| 2026-05-04 09:29 | 39.94837 | -119.09872 | 34841 ft | 477 kts | 12° |
| 2026-05-04 09:30 | 40.01459 | -119.09062 | 34843 ft | 480 kts | 4° |
| 2026-05-04 09:30 | 40.08110 | -119.08818 | 34848 ft | 477 kts | 3° |
| 2026-05-04 09:31 | 40.14736 | -119.08617 | 34845 ft | 476 kts | 3° |
| 2026-05-04 09:31 | 40.21358 | -119.08369 | 34846 ft | 475 kts | 4° |
| 2026-05-04 09:32 | 40.27944 | -119.08093 | 34848 ft | 472 kts | 4° |
| 2026-05-04 09:34 | 40.54115 | -119.06904 | 34846 ft | 469 kts | 8° |
| 2026-05-04 09:34 | 40.60391 | -119.04892 | 34843 ft | 463 kts | 23° |
| 2026-05-04 09:35 | 40.66348 | -119.01653 | 34848 ft | 463 kts | 26° |
| 2026-05-04 09:35 | 40.72244 | -118.98219 | 34843 ft | 463 kts | 26° |
| 2026-05-04 09:37 | 40.95799 | -118.84507 | 34839 ft | 463 kts | 25° |
| 2026-05-04 09:38 | 41.01689 | -118.81077 | 34840 ft | 463 kts | 25° |
| 2026-05-04 09:38 | 41.07581 | -118.77638 | 34840 ft | 463 kts | 25° |
| 2026-05-04 09:39 | 41.13473 | -118.74193 | 34846 ft | 463 kts | 25° |
| 2026-05-04 09:39 | 41.19358 | -118.70745 | 34845 ft | 463 kts | 25° |
| 2026-05-04 09:40 | 41.25246 | -118.67288 | 34848 ft | 463 kts | 25° |
| 2026-05-04 09:40 | 41.31132 | -118.63825 | 34850 ft | 463 kts | 25° |
| 2026-05-04 09:42 | 41.54705 | -118.49889 | 34838 ft | 464 kts | 25° |
| 2026-05-04 09:43 | 41.60598 | -118.46388 | 34844 ft | 464 kts | 25° |
| 2026-05-04 09:43 | 41.66458 | -118.42899 | 34839 ft | 464 kts | 25° |
| 2026-05-04 09:44 | 41.72351 | -118.39384 | 34845 ft | 464 kts | 25° |
| 2026-05-04 09:46 | 41.95883 | -118.25276 | 34837 ft | 463 kts | 25° |
| 2026-05-04 09:46 | 42.01747 | -118.21743 | 34851 ft | 461 kts | 25° |
| 2026-05-04 09:47 | 42.07596 | -118.18208 | 34853 ft | 461 kts | 25° |
| 2026-05-04 09:49 | 42.29999 | -118.04617 | 34868 ft | 462 kts | 25° |
| 2026-05-04 09:51 | 42.50486 | -117.92092 | 34925 ft | 461 kts | 25° |
| 2026-05-04 09:51 | 42.56327 | -117.88505 | 34924 ft | 461 kts | 25° |
| 2026-05-04 09:52 | 42.62341 | -117.85473 | 34922 ft | 461 kts | 18° |
| 2026-05-04 09:52 | 42.68461 | -117.82851 | 34917 ft | 460 kts | 18° |
| 2026-05-04 09:53 | 42.74565 | -117.80303 | 34904 ft | 459 kts | 18° |
| 2026-05-04 09:53 | 42.80663 | -117.77752 | 34896 ft | 458 kts | 18° |
| 2026-05-04 09:54 | 42.86718 | -117.75205 | 34886 ft | 459 kts | 18° |
| 2026-05-04 09:54 | 42.92799 | -117.72637 | 34874 ft | 457 kts | 18° |
| 2026-05-04 09:55 | 42.98870 | -117.70066 | 34876 ft | 456 kts | 18° |
| 2026-05-04 09:55 | 43.04934 | -117.67493 | 34878 ft | 457 kts | 18° |
| 2026-05-04 09:56 | 43.10999 | -117.64915 | 34876 ft | 456 kts | 18° |
| 2026-05-04 09:56 | 43.17055 | -117.62335 | 34877 ft | 455 kts | 18° |
| 2026-05-04 09:57 | 43.23103 | -117.59754 | 34873 ft | 455 kts | 18° |
| 2026-05-04 09:57 | 43.29145 | -117.57170 | 34869 ft | 455 kts | 18° |
| 2026-05-04 09:58 | 43.35184 | -117.54581 | 34867 ft | 455 kts | 18° |
| 2026-05-04 09:58 | 43.41231 | -117.51984 | 34867 ft | 455 kts | 18° |
| 2026-05-04 10:00 | 43.65366 | -117.41563 | 34844 ft | 453 kts | 18° |
| 2026-05-04 10:04 | 44.07223 | -117.23280 | 34832 ft | 450 kts | 18° |
| 2026-05-04 10:04 | 44.13201 | -117.20648 | 34830 ft | 450 kts | 18° |
| 2026-05-04 10:05 | 44.19175 | -117.18010 | 34851 ft | 450 kts | 18° |
| 2026-05-04 10:05 | 44.25149 | -117.15368 | 34846 ft | 450 kts | 18° |
| 2026-05-04 10:06 | 44.31114 | -117.12723 | 34837 ft | 450 kts | 18° |
| 2026-05-04 10:06 | 44.37045 | -117.10088 | 34838 ft | 450 kts | 18° |
| 2026-05-04 10:08 | 44.55205 | -117.01985 | 34857 ft | 463 kts | 18° |
| 2026-05-04 10:08 | 44.58273 | -117.00611 | 34853 ft | 462 kts | 18° |
| 2026-05-04 10:08 | 44.64388 | -116.97868 | 34868 ft | 461 kts | 18° |
| 2026-05-04 10:09 | 44.70500 | -116.95121 | 34873 ft | 461 kts | 18° |
| 2026-05-04 10:09 | 44.76603 | -116.92370 | 34877 ft | 460 kts | 18° |
| 2026-05-04 10:10 | 44.82698 | -116.89617 | 34873 ft | 460 kts | 18° |
| 2026-05-04 10:10 | 44.88790 | -116.86860 | 34884 ft | 460 kts | 18° |
| 2026-05-04 10:11 | 44.94880 | -116.84097 | 34888 ft | 460 kts | 18° |
| 2026-05-04 10:11 | 45.00975 | -116.81327 | 34895 ft | 460 kts | 18° |